Time,TemperatureF,DewpointF,PressureIn,WindDirection,WindDirectionDegrees,WindSpeedMPH,WindSpeedGustMPH,Humidity,HourlyPrecipIn,Conditions,Clouds,dailyrainin,SoftwareType,DateUTC
2016-02-11 00:03:00,54.0,48.0,30.14,North,360,0.0,0.0,81,0.00,,,0.00,weatherlink.com 1.10,2016-02-11 08:03:00,
2016-02-11 00:18:00,54.1,48.0,30.14,North,360,0.0,0.0,80,0.00,,,0.00,weatherlink.com 1.10,2016-02-11 08:18:00,
2016-02-11 00:33:00,54.3,48.0,30.14,North,360,0.0,0.0,80,0.00,,,0.00,weatherlink.com 1.10,2016-02-11 08:33:00,
2016-02-11 00:48:00,54.3,48.0,30.14,North,360,0.0,0.0,79,0.00,,,0.00,weatherlink.com 1.10,2016-02-11 08:48:00,
2016-02-11 01:04:00,54.1,47.0,30.14,North,360,0.0,0.0,78,0.00,,,0.00,weatherlink.com 1.10,2016-02-11 09:04:00,
2016-02-11 01:18:00,53.7,47.0,30.14,North,360,0.0,0.0,78,0.00,,,0.00,weatherlink.com 1.10,2016-02-11 09:18:00,
2016-02-11 01:33:00,53.6,47.0,30.14,North,360,0.0,0.0,77,0.00,,,0.00,weatherlink.com 1.10,2016-02-11 09:33:00,
2016-02-11 01:48:00,53.4,46.0,30.13,North,360,0.0,0.0,77,0.00,,,0.00,weatherlink.com 1.10,2016-02-11 09:48:00,
2016-02-11 02:03:00,52.9,46.0,30.13,North,360,0.0,0.0,77,0.00,,,0.00,weatherlink.com 1.10,2016-02-11 10:03:00,
2016-02-11 02:18:00,52.9,46.0,30.13,North,360,0.0,0.0,76,0.00,,,0.00,weatherlink.com 1.10,2016-02-11 10:18:00,
2016-02-11 02:48:00,52.6,44.0,30.12,North,360,0.0,0.0,73,0.00,,,0.00,weatherlink.com 1.10,2016-02-11 10:48:00,
2016-02-11 03:03:00,52.8,44.0,30.12,North,360,0.0,0.0,71,0.00,,,0.00,weatherlink.com 1.10,2016-02-11 11:03:00,
2016-02-11 03:18:00,53.0,43.0,30.12,North,360,0.0,0.0,68,0.00,,,0.00,weatherlink.com 1.10,2016-02-11 11:18:00,
2016-02-11 03:33:00,52.6,43.0,30.11,North,360,0.0,0.0,69,0.00,,,0.00,weatherlink.com 1.10,2016-02-11 11:33:00,
2016-02-11 03:48:00,52.4,42.0,30.11,North,360,0.0,0.0,69,0.00,,,0.00,weatherlink.com 1.10,2016-02-11 11:48:00,
2016-02-11 04:03:00,52.5,43.0,30.11,North,360,0.0,0.0,69,0.00,,,0.00,weatherlink.com 1.10,2016-02-11 12:03:00,
2016-02-11 04:18:00,52.6,42.0,30.11,North,360,0.0,0.0,68,0.00,,,0.00,weatherlink.com 1.10,2016-02-11 12:18:00,
2016-02-11 04:33:00,53.2,42.0,30.11,North,360,0.0,0.0,66,0.00,,,0.00,weatherlink.com 1.10,2016-02-11 12:33:00,
2016-02-11 05:03:00,53.7,41.0,30.11,North,360,0.0,0.0,62,0.00,,,0.00,weatherlink.com 1.10,2016-02-11 13:03:00,
2016-02-11 05:18:00,53.7,41.0,30.11,North,360,0.0,0.0,63,0.00,,,0.00,weatherlink.com 1.10,2016-02-11 13:18:00,
2016-02-11 05:33:00,53.1,42.0,30.11,North,360,0.0,0.0,65,0.00,,,0.00,weatherlink.com 1.10,2016-02-11 13:33:00,
2016-02-11 05:48:00,53.0,42.0,30.11,North,360,0.0,0.0,67,0.00,,,0.00,weatherlink.com 1.10,2016-02-11 13:48:00,
2016-02-11 06:03:00,52.7,44.0,30.11,North,360,0.0,0.0,72,0.00,,,0.00,weatherlink.com 1.10,2016-02-11 14:03:00,
2016-02-11 06:18:00,52.8,44.0,30.11,North,360,0.0,0.0,72,0.00,,,0.00,weatherlink.com 1.10,2016-02-11 14:18:00,
2016-02-11 06:33:00,53.0,43.0,30.11,North,360,0.0,0.0,69,0.00,,,0.00,weatherlink.com 1.10,2016-02-11 14:33:00,
2016-02-11 07:03:00,52.5,43.0,30.12,North,360,0.0,0.0,71,0.00,,,0.00,weatherlink.com 1.10,2016-02-11 15:03:00,
2016-02-11 07:18:00,52.9,43.0,30.13,North,360,0.0,0.0,70,0.00,,,0.00,weatherlink.com 1.10,2016-02-11 15:18:00,
2016-02-11 07:33:00,53.0,44.0,30.12,North,360,0.0,0.0,71,0.00,,,0.00,weatherlink.com 1.10,2016-02-11 15:33:00,
2016-02-11 07:48:00,53.3,44.0,30.13,North,360,0.0,0.0,72,0.00,,,0.00,weatherlink.com 1.10,2016-02-11 15:48:00,
2016-02-11 08:03:00,54.2,44.0,30.13,North,360,0.0,0.0,69,0.00,,,0.00,weatherlink.com 1.10,2016-02-11 16:03:00,
2016-02-11 08:18:00,56.3,47.0,30.13,North,360,0.0,0.0,72,0.00,,,0.00,weatherlink.com 1.10,2016-02-11 16:18:00,
2016-02-11 08:33:00,56.3,48.0,30.14,North,360,0.0,0.0,74,0.00,,,0.00,weatherlink.com 1.10,2016-02-11 16:33:00,
2016-02-11 08:48:00,57.1,48.0,30.14,North,360,0.0,0.0,71,0.00,,,0.00,weatherlink.com 1.10,2016-02-11 16:48:00,
2016-02-11 09:04:00,59.1,49.0,30.14,ENE,63,0.0,1.0,69,0.00,,,0.00,weatherlink.com 1.10,2016-02-11 17:04:00,
2016-02-11 09:19:00,60.2,50.0,30.14,ENE,63,0.0,0.0,68,0.00,,,0.00,weatherlink.com 1.10,2016-02-11 17:19:00,
2016-02-11 09:34:00,62.8,49.0,30.14,SE,131,0.0,1.0,60,0.00,,,0.00,weatherlink.com 1.10,2016-02-11 17:34:00,
2016-02-11 09:49:00,64.8,49.0,30.14,SSE,158,0.0,0.0,58,0.00,,,0.00,weatherlink.com 1.10,2016-02-11 17:49:00,
2016-02-11 10:19:00,66.0,52.0,30.15,North,351,0.0,3.0,61,0.00,,,0.00,weatherlink.com 1.10,2016-02-11 18:19:00,
2016-02-11 10:34:00,65.8,53.0,30.15,NNW,347,0.0,4.0,63,0.00,,,0.00,weatherlink.com 1.10,2016-02-11 18:34:00,
2016-02-11 10:49:00,66.9,53.0,30.15,North,350,0.0,2.0,61,0.00,,,0.00,weatherlink.com 1.10,2016-02-11 18:49:00,
2016-02-11 11:04:00,68.2,53.0,30.15,North,352,1.0,3.0,59,0.00,,,0.00,weatherlink.com 1.10,2016-02-11 19:04:00,
2016-02-11 11:19:00,69.0,53.0,30.15,North,6,1.0,3.0,58,0.00,,,0.00,weatherlink.com 1.10,2016-02-11 19:19:00,
2016-02-11 11:34:00,69.4,54.0,30.14,SSE,160,2.0,2.0,58,0.00,,,0.00,weatherlink.com 1.10,2016-02-11 19:34:00,
2016-02-11 11:49:00,70.8,53.0,30.13,North,11,1.0,2.0,53,0.00,,,0.00,weatherlink.com 1.10,2016-02-11 19:49:00,
2016-02-11 12:04:00,71.1,54.0,30.13,North,349,0.0,3.0,55,0.00,,,0.00,weatherlink.com 1.10,2016-02-11 20:04:00,
2016-02-11 12:34:00,69.8,52.0,30.12,NNW,329,0.0,2.0,54,0.00,,,0.00,weatherlink.com 1.10,2016-02-11 20:34:00,
2016-02-11 12:49:00,70.1,54.0,30.11,NNW,348,1.0,1.0,56,0.00,,,0.00,weatherlink.com 1.10,2016-02-11 20:49:00,
2016-02-11 13:04:00,70.2,53.0,30.11,SSE,167,0.0,1.0,55,0.00,,,0.00,weatherlink.com 1.10,2016-02-11 21:04:00,
2016-02-11 13:19:00,71.4,55.0,30.10,SSW,206,0.0,2.0,57,0.00,,,0.00,weatherlink.com 1.10,2016-02-11 21:19:00,
2016-02-11 13:34:00,71.3,54.0,30.10,NW,324,0.0,4.0,54,0.00,,,0.00,weatherlink.com 1.10,2016-02-11 21:34:00,
2016-02-11 13:49:00,71.6,54.0,30.10,NNW,342,0.0,3.0,55,0.00,,,0.00,weatherlink.com 1.10,2016-02-11 21:49:00,
2016-02-11 14:04:00,72.6,55.0,30.10,NNW,338,0.0,1.0,55,0.00,,,0.00,weatherlink.com 1.10,2016-02-11 22:04:00,
2016-02-11 14:19:00,71.4,54.0,30.10,NNW,330,0.0,0.0,55,0.00,,,0.00,weatherlink.com 1.10,2016-02-11 22:19:00,
2016-02-11 14:34:00,71.3,55.0,30.10,North,1,1.0,3.0,56,0.00,,,0.00,weatherlink.com 1.10,2016-02-11 22:34:00,
2016-02-11 15:04:00,73.4,56.0,30.09,ESE,120,0.0,2.0,55,0.00,,,0.00,weatherlink.com 1.10,2016-02-11 23:04:00,
2016-02-11 15:34:00,73.8,55.0,30.10,SE,133,0.0,2.0,52,0.00,,,0.00,weatherlink.com 1.10,2016-02-11 23:34:00,